createdAt,value
2018-09-10T00:01:51.193Z,101687.55
2018-09-10T00:04:19.435Z,101685.67
2018-09-10T00:06:48.137Z,101686.09
2018-09-10T00:09:16.433Z,101687.39
2018-09-10T00:11:44.627Z,101679.64
2018-09-10T00:14:12.954Z,101684.58
2018-09-10T00:16:41.163Z,101690.39
2018-09-10T00:19:09.391Z,101684.64
2018-09-10T00:21:37.599Z,101689.57
2018-09-10T00:24:05.843Z,101691.70
2018-09-10T00:26:34.111Z,101695.75
2018-09-10T00:29:02.387Z,101695.22
2018-09-10T00:31:30.617Z,101697.45
2018-09-10T00:33:58.831Z,101696.64
2018-09-10T00:36:27.201Z,101696.15
2018-09-10T00:38:55.431Z,101692.97
2018-09-10T00:41:23.703Z,101695.85
2018-09-10T00:43:52.008Z,101694.22
2018-09-10T00:46:20.205Z,101706.02
2018-09-10T00:48:48.535Z,101706.22
2018-09-10T00:51:16.706Z,101702.09
2018-09-10T00:53:44.933Z,101701.58
2018-09-10T00:56:13.119Z,101697.11
2018-09-10T00:58:41.323Z,101706.70
2018-09-10T01:01:09.519Z,101699.27
2018-09-10T01:03:37.796Z,101697.10
2018-09-10T01:06:05.978Z,101695.72
2018-09-10T01:08:34.215Z,101687.98
2018-09-10T01:11:02.403Z,101692.59
2018-09-10T01:13:30.659Z,101689.92
2018-09-10T01:15:58.839Z,101683.92
2018-09-10T01:18:27.099Z,101687.75
2018-09-10T01:20:55.279Z,101690.30
2018-09-10T01:23:23.454Z,101683.02
2018-09-10T01:25:51.645Z,101687.61
2018-09-10T01:28:19.923Z,101687.30
2018-09-10T01:30:48.123Z,101694.55
2018-09-10T01:33:21.665Z,101693.60
2018-09-10T01:35:49.866Z,101700.41
2018-09-10T01:38:18.060Z,101690.42
2018-09-10T01:40:46.339Z,101692.61
2018-09-10T01:43:14.582Z,101686.06
2018-09-10T01:45:42.851Z,101682.19
2018-09-10T01:48:11.058Z,101678.70
2018-09-10T01:50:39.297Z,101680.95
2018-09-10T01:53:07.497Z,101684.17
2018-09-10T01:55:35.757Z,101672.02
2018-09-10T01:58:04.037Z,101666.08
2018-09-10T02:00:32.291Z,101671.39
2018-09-10T02:03:00.493Z,101665.75
2018-09-10T02:05:28.703Z,101657.28
2018-09-10T02:07:56.992Z,101652.61
2018-09-10T02:10:25.325Z,101650.98
2018-09-10T02:12:53.502Z,101656.84
2018-09-10T02:15:21.773Z,101651.78
2018-09-10T02:17:49.984Z,101658.64
2018-09-10T02:20:18.246Z,101655.70
2018-09-10T02:22:46.434Z,101659.16
2018-09-10T02:25:14.761Z,101658.64
2018-09-10T02:27:43.020Z,101660.93
2018-09-10T02:30:11.238Z,101655.70
2018-09-10T02:32:39.481Z,101660.02
2018-09-10T02:35:07.955Z,101654.78
2018-09-10T02:37:36.204Z,101658.45
2018-09-10T02:40:04.413Z,101663.64
2018-09-10T02:42:32.599Z,101670.65
2018-09-10T02:45:00.845Z,101666.89
2018-09-10T02:47:30.026Z,101670.39
2018-09-10T02:49:58.171Z,101667.67
2018-09-10T02:52:26.351Z,101662.42
2018-09-10T02:54:54.535Z,101662.17
2018-09-10T02:57:22.710Z,101671.63
2018-09-10T02:59:50.889Z,101672.41
2018-09-10T03:02:19.084Z,101673.13
2018-09-10T03:04:47.288Z,101671.75
2018-09-10T03:07:16.202Z,101670.14
2018-09-10T03:09:44.424Z,101674.50
2018-09-10T03:12:12.553Z,101668.27
2018-09-10T03:14:40.753Z,101661.34
2018-09-10T03:17:08.943Z,101665.59
2018-09-10T03:19:37.120Z,101655.39
2018-09-10T03:22:05.421Z,101665.09
2018-09-10T03:24:33.591Z,101663.39
2018-09-10T03:27:01.780Z,101663.77
2018-09-10T03:29:30.433Z,101660.59
2018-09-10T03:31:58.589Z,101662.20
2018-09-10T03:34:26.768Z,101661.28
2018-09-10T03:36:55.116Z,101661.21
2018-09-10T03:39:23.631Z,101671.86
2018-09-10T03:41:51.776Z,101667.97
2018-09-10T03:44:20.043Z,101681.37
2018-09-10T03:46:48.216Z,101682.61
2018-09-10T03:49:16.358Z,101674.48
2018-09-10T03:51:44.539Z,101673.27
2018-09-10T03:54:12.759Z,101674.09
2018-09-10T03:56:40.963Z,101667.45
2018-09-10T03:59:09.318Z,101674.98
2018-09-10T04:01:37.588Z,101667.34
2018-09-10T04:04:05.782Z,101668.38
2018-09-10T04:06:34.237Z,101673.11
2018-09-10T04:09:02.489Z,101678.11
2018-09-10T04:11:30.734Z,101671.75
2018-09-10T04:13:58.966Z,101669.69
2018-09-10T04:16:27.149Z,101662.61
2018-09-10T04:18:55.372Z,101667.58
2018-09-10T04:21:23.551Z,101667.20
2018-09-10T04:23:51.763Z,101672.20
2018-09-10T04:26:21.631Z,101668.83
2018-09-10T04:28:49.922Z,101669.66
2018-09-10T04:31:18.288Z,101671.25
2018-09-10T04:33:46.506Z,101674.48
2018-09-10T04:36:14.892Z,101671.14
2018-09-10T04:38:42.951Z,101669.11
2018-09-10T04:41:11.197Z,101664.00
2018-09-10T04:43:39.471Z,101672.31
2018-09-10T04:46:07.671Z,101667.50
2018-09-10T04:48:36.083Z,101665.89
2018-09-10T04:51:04.335Z,101671.99
2018-09-10T04:53:32.514Z,101668.83
2018-09-10T04:56:00.827Z,101665.50
2018-09-10T04:58:28.946Z,101663.81
2018-09-10T05:00:57.331Z,101668.12
2018-09-10T05:03:25.637Z,101664.44
2018-09-10T05:05:53.985Z,101670.89
2018-09-10T05:08:22.178Z,101676.50
2018-09-10T05:10:50.515Z,101668.83
2018-09-10T05:13:18.693Z,101676.48
2018-09-10T05:15:46.889Z,101674.44
2018-09-10T05:18:15.095Z,101676.00
2018-09-10T05:20:43.315Z,101675.57
2018-09-10T05:23:12.435Z,101675.75
2018-09-10T05:25:40.741Z,101675.62
2018-09-10T05:28:09.503Z,101669.33
2018-09-10T05:30:40.918Z,101673.13
2018-09-10T05:33:09.157Z,101674.06
2018-09-10T05:35:37.693Z,101676.56
2018-09-10T05:38:07.085Z,101678.45
2018-09-10T05:40:35.617Z,101674.31
2018-09-10T05:43:03.873Z,101681.14
2018-09-10T05:45:32.989Z,101683.00
2018-09-10T05:48:01.209Z,101678.23
2018-09-10T05:50:29.383Z,101678.50
2018-09-10T05:52:57.580Z,101679.31
2018-09-10T05:55:25.736Z,101679.23
2018-09-10T05:57:53.905Z,101688.50
2018-09-10T06:00:22.140Z,101688.48
2018-09-10T06:02:50.767Z,101684.41
2018-09-10T06:05:18.974Z,101689.04
2018-09-10T06:07:47.204Z,101690.56
2018-09-10T06:10:15.503Z,101692.97
2018-09-10T06:12:43.766Z,101696.15
2018-09-10T06:15:11.969Z,101698.29
2018-09-10T06:17:40.693Z,101692.75
2018-09-10T06:20:08.921Z,101686.67
2018-09-10T06:22:39.341Z,101685.96
2018-09-10T06:25:07.588Z,101682.00
2018-09-10T06:27:35.843Z,101687.73
2018-09-10T06:30:04.011Z,101682.40
2018-09-10T06:32:32.478Z,101676.11
2018-09-10T06:35:00.716Z,101681.61
2018-09-10T06:37:28.975Z,101674.70
2018-09-10T06:39:57.171Z,101670.62
2018-09-10T06:42:25.407Z,101675.66
2018-09-10T06:44:54.051Z,101670.17
2018-09-10T06:47:22.330Z,101676.27
2018-09-10T06:49:50.619Z,101668.16
2018-09-10T06:52:18.869Z,101660.46
2018-09-10T06:54:47.281Z,101661.58
2018-09-10T06:57:15.487Z,101660.56
2018-09-10T06:59:43.862Z,101657.41
2018-09-10T07:02:12.135Z,101659.66
2018-09-10T07:04:40.740Z,101669.44
2018-09-10T07:07:09.235Z,101671.32
2018-09-10T07:09:37.551Z,101666.96
2018-09-10T07:12:05.868Z,101669.09
2018-09-10T07:14:34.270Z,101665.96
2018-09-10T07:17:02.467Z,101661.84
2018-09-10T07:19:30.704Z,101663.77
2018-09-10T07:21:58.853Z,101667.52
2018-09-10T07:24:27.087Z,101671.65
2018-09-10T07:26:55.511Z,101661.88
2018-09-10T07:29:23.731Z,101665.50
2018-09-10T07:31:51.971Z,101662.73
2018-09-10T07:34:20.134Z,101659.88
2018-09-10T07:36:48.457Z,101661.69
2018-09-10T07:39:16.644Z,101661.39
2018-09-10T07:41:44.839Z,101659.70
2018-09-10T07:44:13.221Z,101664.13
2018-09-10T07:46:41.491Z,101658.40
2018-09-10T07:49:09.601Z,101666.31
2018-09-10T07:51:37.908Z,101662.78
2018-09-10T07:54:06.147Z,101665.83
2018-09-10T07:56:34.393Z,101655.71
2018-09-10T07:59:02.668Z,101660.97
2018-09-10T08:01:30.917Z,101660.11
2018-09-10T08:03:59.185Z,101653.03
2018-09-10T08:06:27.426Z,101654.83
2018-09-10T08:08:55.668Z,101647.80
2018-09-10T08:11:23.876Z,101649.55
2018-09-10T08:13:52.086Z,101644.72
2018-09-10T08:16:20.431Z,101644.74
2018-09-10T08:18:49.531Z,101642.08
2018-09-10T08:21:17.817Z,101641.21
2018-09-10T08:23:45.994Z,101642.09
2018-09-10T08:26:14.366Z,101643.84
2018-09-10T08:28:42.527Z,101650.52
2018-09-10T08:31:10.768Z,101645.23
2018-09-10T08:33:39.190Z,101656.27
2018-09-10T08:36:07.407Z,101652.72
2018-09-10T08:38:35.768Z,101650.95
2018-09-10T08:41:04.057Z,101651.84
2018-09-10T08:43:32.292Z,101648.70
2018-09-10T08:46:00.568Z,101653.58
2018-09-10T08:48:28.884Z,101652.18
2018-09-10T08:50:57.137Z,101648.18
2018-09-10T08:53:25.361Z,101649.39
2018-09-10T08:55:53.737Z,101639.09
2018-09-10T08:58:22.161Z,101636.70
2018-09-10T09:00:50.545Z,101635.54
2018-09-10T09:03:19.257Z,101631.55
2018-09-10T09:05:47.535Z,101638.06
2018-09-10T09:08:15.819Z,101636.60
2018-09-10T09:10:44.015Z,101637.37
2018-09-10T09:13:12.329Z,101630.63
2018-09-10T09:15:40.632Z,101634.05
2018-09-10T09:18:08.823Z,101625.95
2018-09-10T09:20:37.028Z,101627.40
2018-09-10T09:23:05.377Z,101620.20
2018-09-10T09:25:33.717Z,101623.29
2018-09-10T09:28:01.951Z,101623.77
2018-09-10T09:30:30.123Z,101626.11
2018-09-10T09:32:58.452Z,101613.13
2018-09-10T09:35:31.894Z,101611.24
2018-09-10T09:38:05.519Z,101611.66
2018-09-10T09:40:39.124Z,101607.09
2018-09-10T09:43:12.858Z,101601.82
2018-09-10T09:45:46.459Z,101593.83
2018-09-10T09:48:14.734Z,101589.59
2018-09-10T09:50:42.978Z,101593.84
2018-09-10T09:53:11.385Z,101590.38
2018-09-10T09:55:39.660Z,101595.31
2018-09-10T09:58:07.895Z,101598.44
2018-09-10T10:00:41.436Z,101587.33
2018-09-10T10:03:16.200Z,101578.95
2018-09-10T10:05:45.203Z,101581.94
2018-09-10T10:08:13.460Z,101581.80
2018-09-10T10:10:41.705Z,101585.11
2018-09-10T10:13:10.166Z,101583.06
2018-09-10T10:15:38.498Z,101584.31
2018-09-10T10:18:06.880Z,101585.43
2018-09-10T10:20:35.126Z,101581.37
2018-09-10T10:23:03.654Z,101583.92
2018-09-10T10:25:32.042Z,101577.88
2018-09-10T10:28:00.677Z,101577.83
2018-09-10T10:30:28.903Z,101574.45
2018-09-10T10:32:57.323Z,101575.02
2018-09-10T10:35:25.709Z,101570.03
2018-09-10T10:37:53.904Z,101563.25
2018-09-10T10:40:22.201Z,101573.77
2018-09-10T10:42:50.367Z,101571.00
2018-09-10T10:45:18.585Z,101570.39
2018-09-10T10:47:47.506Z,101560.84
2018-09-10T10:50:15.711Z,101556.06
2018-09-10T10:52:44.220Z,101550.92
2018-09-10T10:55:14.701Z,101549.25
2018-09-10T10:57:42.908Z,101549.38
2018-09-10T11:00:11.125Z,101549.77
2018-09-10T11:02:39.279Z,101551.41
2018-09-10T11:05:07.553Z,101550.48
2018-09-10T11:07:35.792Z,101552.65
2018-09-10T11:10:04.067Z,101548.05
2018-09-10T11:12:32.211Z,101554.76
2018-09-10T11:15:00.608Z,101551.10
2018-09-10T11:17:28.839Z,101545.06
2018-09-10T11:19:57.222Z,101546.50
2018-09-10T11:22:26.143Z,101552.98
2018-09-10T11:24:54.573Z,101546.59
2018-09-10T11:27:22.865Z,101549.81
2018-09-10T11:29:51.052Z,101554.25
2018-09-10T11:32:19.513Z,101553.03
2018-09-10T11:34:47.673Z,101550.77
2018-09-10T11:37:15.880Z,101552.88
2018-09-10T11:39:44.377Z,101553.52
2018-09-10T11:42:12.543Z,101558.47
2018-09-10T11:44:40.889Z,101559.42
2018-09-10T11:47:09.473Z,101565.63
2018-09-10T11:49:37.727Z,101550.66
2018-09-10T11:52:05.902Z,101549.38
2018-09-10T11:54:34.079Z,101551.63
2018-09-10T11:57:02.525Z,101558.11
2018-09-10T11:59:30.802Z,101551.49
2018-09-10T12:01:59.010Z,101554.49
2018-09-10T12:04:27.282Z,101548.87
2018-09-10T12:06:56.092Z,101551.72
2018-09-10T12:09:24.265Z,101545.60
2018-09-10T12:11:52.531Z,101550.59
2018-09-10T12:14:20.717Z,101543.86
2018-09-10T12:16:48.983Z,101540.14
2018-09-10T12:19:17.388Z,101550.09
2018-09-10T12:21:45.640Z,101544.13
2018-09-10T12:24:14.036Z,101543.28
2018-09-10T12:26:42.342Z,101543.52
2018-09-10T12:29:10.960Z,101543.56
2018-09-10T12:31:39.337Z,101544.84
2018-09-10T12:34:07.622Z,101543.16
2018-09-10T12:36:35.895Z,101543.37
2018-09-10T12:39:04.993Z,101543.91
2018-09-10T12:41:33.401Z,101546.75
2018-09-10T12:44:01.787Z,101542.75
2018-09-10T12:46:30.022Z,101537.12
2018-09-10T12:48:58.570Z,101533.24
2018-09-10T12:51:26.855Z,101535.48
2018-09-10T12:53:57.066Z,101530.94
2018-09-10T12:56:27.102Z,101532.56
2018-09-10T12:58:55.656Z,101535.02
2018-09-10T13:01:24.016Z,101535.06
2018-09-10T13:03:53.215Z,101532.79
2018-09-10T13:06:21.568Z,101537.29
2018-09-10T13:08:50.239Z,101542.52
2018-09-10T13:11:18.592Z,101531.84
2018-09-10T13:13:47.517Z,101531.48
2018-09-10T13:16:16.032Z,101530.92
2018-09-10T13:18:44.195Z,101527.13
2018-09-10T13:21:13.686Z,101519.09
2018-09-10T13:23:42.093Z,101527.38
2018-09-10T13:26:10.307Z,101523.32
2018-09-10T13:28:38.933Z,101523.38
2018-09-10T13:31:07.160Z,101528.56
2018-09-10T13:33:35.610Z,101530.16
2018-09-10T13:36:03.769Z,101521.41
2018-09-10T13:38:32.027Z,101526.19
2018-09-10T13:41:00.684Z,101519.39
2018-09-10T13:43:29.060Z,101521.76
2018-09-10T13:48:50.428Z,101531.78
2018-09-10T13:51:18.764Z,101537.69
2018-09-10T13:53:47.005Z,101540.92
2018-09-10T13:56:15.592Z,101537.00
2018-09-10T13:58:44.125Z,101543.81
2018-09-10T14:01:12.462Z,101537.53
2018-09-10T14:03:42.444Z,101537.45
2018-09-10T14:06:13.472Z,101538.34
2018-09-10T14:08:42.078Z,101534.56
2018-09-10T14:11:10.794Z,101530.77
2018-09-10T14:13:39.646Z,101526.91
2018-09-10T14:16:07.918Z,101528.80
2018-09-10T14:18:36.123Z,101524.26
2018-09-10T14:21:04.453Z,101524.15
2018-09-10T14:23:33.248Z,101524.06
2018-09-10T14:26:02.525Z,101520.08
2018-09-10T14:28:31.960Z,101515.28
2018-09-10T14:31:00.762Z,101522.55
2018-09-10T14:33:29.077Z,101517.47
2018-09-10T14:35:57.419Z,101519.57
2018-09-10T14:38:26.362Z,101525.80
2018-09-10T14:40:54.601Z,101524.42
2018-09-10T14:43:22.960Z,101513.48
2018-09-10T14:45:51.862Z,101514.44
2018-09-10T14:48:20.077Z,101516.91
2018-09-10T14:50:48.317Z,101521.70
2018-09-10T14:53:16.567Z,101524.25
2018-09-10T14:55:44.775Z,101522.06
2018-09-10T14:58:13.298Z,101520.25
2018-09-10T15:00:42.069Z,101516.52
2018-09-10T15:03:10.454Z,101524.55
2018-09-10T15:05:38.762Z,101520.72
2018-09-10T15:08:07.166Z,101519.48
2018-09-10T15:10:35.348Z,101523.64
2018-09-10T15:13:03.615Z,101523.97
2018-09-10T15:15:31.814Z,101519.14
2018-09-10T15:17:59.994Z,101525.02
2018-09-10T15:20:28.261Z,101519.08
2018-09-10T15:22:56.518Z,101522.34
2018-09-10T15:25:24.740Z,101525.83
2018-09-10T15:27:53.134Z,101529.16
2018-09-10T15:30:21.361Z,101531.23
2018-09-10T15:32:49.591Z,101532.10
2018-09-10T15:35:17.845Z,101537.27
2018-09-10T15:37:46.065Z,101533.33
2018-09-10T15:40:14.415Z,101533.84
2018-09-10T15:42:42.962Z,101533.09
2018-09-10T15:45:11.896Z,101529.63
2018-09-10T15:47:40.550Z,101530.73
2018-09-10T15:50:08.877Z,101541.94
2018-09-10T15:52:37.103Z,101545.05
2018-09-10T15:55:05.276Z,101536.80
2018-09-10T15:57:33.907Z,101535.01
2018-09-10T16:00:02.088Z,101530.09
2018-09-10T16:02:30.219Z,101517.31
2018-09-10T16:04:58.987Z,101517.70
2018-09-10T16:07:27.181Z,101520.89
2018-09-10T16:09:55.421Z,101511.19
2018-09-10T16:12:23.677Z,101513.09
2018-09-10T16:14:52.298Z,101514.00
2018-09-10T16:17:21.265Z,101521.09
2018-09-10T16:19:49.502Z,101521.97
2018-09-10T16:22:17.790Z,101533.06
2018-09-10T16:24:46.343Z,101537.05
2018-09-10T16:27:14.673Z,101540.18
2018-09-10T16:29:42.895Z,101541.59
2018-09-10T16:32:11.141Z,101542.47
2018-09-10T16:34:39.389Z,101536.34
2018-09-10T16:37:07.596Z,101544.73
2018-09-10T16:39:35.955Z,101551.43
2018-09-10T16:42:04.761Z,101547.89
2018-09-10T16:44:33.119Z,101553.16
2018-09-10T16:47:01.453Z,101554.59
2018-09-10T16:49:29.782Z,101561.31
2018-09-10T16:51:57.964Z,101561.14
2018-09-10T16:54:26.909Z,101566.08
2018-09-10T16:56:55.107Z,101571.89
2018-09-10T16:59:23.448Z,101577.30
2018-09-10T17:01:51.622Z,101574.22
2018-09-10T17:04:19.857Z,101569.55
2018-09-10T17:06:48.626Z,101573.19
2018-09-10T17:09:17.649Z,101564.34
2018-09-10T17:11:46.121Z,101561.20
2018-09-10T17:14:14.834Z,101552.44
2018-09-10T17:16:43.016Z,101552.04
2018-09-10T17:19:11.644Z,101551.59
2018-09-10T17:21:41.482Z,101548.06
2018-09-10T17:24:11.766Z,101548.61
2018-09-10T17:26:40.614Z,101551.68
2018-09-10T17:29:08.820Z,101551.34
2018-09-10T17:31:36.997Z,101549.61
2018-09-10T17:34:05.345Z,101550.46
2018-09-10T17:36:33.533Z,101550.94
2018-09-10T17:39:01.864Z,101554.98
2018-09-10T17:41:30.085Z,101552.33
2018-09-10T17:43:58.380Z,101555.42
2018-09-10T17:46:26.614Z,101568.26
2018-09-10T17:48:56.298Z,101572.70
2018-09-10T17:51:25.014Z,101573.59
2018-09-10T17:53:53.283Z,101578.41
2018-09-10T17:56:22.505Z,101581.98
2018-09-10T17:58:51.655Z,101577.12
2018-09-10T18:01:19.862Z,101587.27
2018-09-10T18:03:48.444Z,101597.88
2018-09-10T18:06:16.886Z,101601.88
2018-09-10T18:08:45.278Z,101602.36
2018-09-10T18:11:13.476Z,101600.11
2018-09-10T18:13:42.022Z,101602.36
2018-09-10T18:16:10.232Z,101603.70
2018-09-10T18:18:38.406Z,101605.03
2018-09-10T18:21:06.729Z,101612.53
2018-09-10T18:23:34.951Z,101615.64
2018-09-10T18:26:03.264Z,101618.71
2018-09-10T18:28:31.572Z,101609.89
2018-09-10T18:31:02.932Z,101608.11
2018-09-10T18:33:31.405Z,101613.01
2018-09-10T18:36:00.120Z,101609.92
2018-09-10T18:38:28.353Z,101619.63
2018-09-10T18:40:56.589Z,101616.53
2018-09-10T18:43:24.994Z,101616.53
2018-09-10T18:45:53.310Z,101614.32
2018-09-10T18:48:21.610Z,101616.09
2018-09-10T18:50:49.876Z,101615.19
2018-09-10T18:53:18.213Z,101610.34
2018-09-10T18:55:46.948Z,101604.17
2018-09-10T18:58:15.280Z,101602.42
2018-09-10T19:00:44.304Z,101601.09
2018-09-10T19:03:12.604Z,101616.55
2018-09-10T19:05:41.220Z,101630.23
2018-09-10T19:08:09.553Z,101628.45
2018-09-10T19:10:37.836Z,101635.48
2018-09-10T19:13:06.700Z,101635.91
2018-09-10T19:15:35.026Z,101632.88
2018-09-10T19:18:03.230Z,101625.80
2018-09-10T19:20:31.522Z,101626.70
2018-09-10T19:22:59.802Z,101627.08
2018-09-10T19:25:28.085Z,101626.66
2018-09-10T19:27:56.654Z,101628.02
2018-09-10T19:30:25.698Z,101627.53
2018-09-10T19:32:54.019Z,101632.41
2018-09-10T19:35:22.963Z,101627.55
2018-09-10T19:37:51.403Z,101624.89
2018-09-10T19:40:19.736Z,101627.53
2018-09-10T19:42:55.449Z,101626.64
2018-09-10T19:45:24.241Z,101629.73
2018-09-10T19:47:52.608Z,101618.70
2018-09-10T19:50:20.977Z,101629.72
2018-09-10T19:52:49.520Z,101631.45
2018-09-10T19:55:17.826Z,101632.80
2018-09-10T19:57:46.311Z,101638.95
2018-09-10T20:00:21.069Z,101640.32
2018-09-10T20:02:49.301Z,101640.31
2018-09-10T20:05:17.694Z,101630.14
2018-09-10T20:07:46.013Z,101631.45
2018-09-10T20:10:14.688Z,101619.58
2018-09-10T20:12:43.045Z,101616.44
2018-09-10T20:15:11.479Z,101616.92
2018-09-10T20:17:39.773Z,101618.66
2018-09-10T20:20:08.399Z,101629.24
2018-09-10T20:22:36.982Z,101633.20
2018-09-10T20:25:05.462Z,101619.52
2018-09-10T20:27:33.764Z,101617.25
2018-09-10T20:30:02.009Z,101620.77
2018-09-10T20:32:30.393Z,101616.81
2018-09-10T20:34:59.392Z,101614.52
2018-09-10T20:37:27.619Z,101609.64
2018-09-10T20:39:56.020Z,101608.75
2018-09-10T20:42:24.273Z,101609.59
2018-09-10T20:44:52.516Z,101612.69
2018-09-10T20:47:20.773Z,101621.50
2018-09-10T20:49:49.298Z,101616.68
2018-09-10T20:52:18.624Z,101612.33
2018-09-10T20:54:48.314Z,101603.50
2018-09-10T20:57:17.004Z,101603.98
2018-09-10T20:59:45.527Z,101602.16
2018-09-10T21:02:14.042Z,101599.48
2018-09-10T21:04:42.365Z,101610.45
2018-09-10T21:07:11.301Z,101606.16
2018-09-10T21:09:39.740Z,101603.07
2018-09-10T21:12:08.014Z,101606.57
2018-09-10T21:14:36.396Z,101615.38
2018-09-10T21:17:04.945Z,101616.19
2018-09-10T21:19:33.845Z,101607.00
2018-09-10T21:22:02.102Z,101615.39
2018-09-10T21:24:31.400Z,101614.97
2018-09-10T21:26:59.760Z,101614.91
2018-09-10T21:29:28.498Z,101608.25
2018-09-10T21:31:57.218Z,101611.28
2018-09-10T21:34:25.636Z,101611.33
2018-09-10T21:36:53.954Z,101615.72
2018-09-10T21:39:22.405Z,101617.91
2018-09-10T21:41:50.597Z,101614.78
2018-09-10T21:44:18.954Z,101602.41
2018-09-10T21:46:47.159Z,101603.78
2018-09-10T21:49:15.319Z,101599.91
2018-09-10T21:51:43.620Z,101608.26
2018-09-10T21:54:12.130Z,101612.53
2018-09-10T21:56:41.559Z,101613.87
2018-09-10T21:59:09.832Z,101615.59
2018-09-10T22:01:38.796Z,101620.88
2018-09-10T22:04:07.665Z,101623.06
2018-09-10T22:06:37.089Z,101622.27
2018-09-10T22:09:06.694Z,101628.86
2018-09-10T22:11:39.352Z,101623.53
2018-09-10T22:14:08.188Z,101631.06
2018-09-10T22:16:36.395Z,101622.66
2018-09-10T22:19:04.618Z,101626.58
2018-09-10T22:21:32.963Z,101631.89
2018-09-10T22:24:01.193Z,101623.04
2018-09-10T22:26:29.370Z,101622.21
2018-09-10T22:28:57.532Z,101615.54
2018-09-10T22:31:25.993Z,101614.22
2018-09-10T22:33:54.321Z,101621.64
2018-09-10T22:36:22.827Z,101626.56
2018-09-10T22:38:51.150Z,101634.03
2018-09-10T22:41:19.424Z,101632.25
2018-09-10T22:43:47.647Z,101632.25
2018-09-10T22:46:15.840Z,101628.28
2018-09-10T22:48:44.019Z,101636.20
2018-09-10T22:51:12.293Z,101644.27
2018-09-10T22:53:40.541Z,101647.23
2018-09-10T22:56:08.758Z,101646.30
2018-09-10T22:58:37.042Z,101644.95
2018-09-10T23:01:05.287Z,101645.80
2018-09-10T23:03:33.562Z,101648.31
2018-09-10T23:06:01.764Z,101646.12
2018-09-10T23:08:30.210Z,101645.38
2018-09-10T23:10:58.398Z,101645.32
2018-09-10T23:13:26.577Z,101652.84
2018-09-10T23:15:55.278Z,101654.09
2018-09-10T23:18:23.454Z,101657.59
2018-09-10T23:20:54.074Z,101652.77
2018-09-10T23:23:22.490Z,101658.88
2018-09-10T23:25:50.738Z,101651.84
2018-09-10T23:28:19.080Z,101651.28
2018-09-10T23:30:47.478Z,101655.69
2018-09-10T23:33:15.781Z,101649.50
2018-09-10T23:35:44.112Z,101655.25
2018-09-10T23:38:16.234Z,101645.20
2018-09-10T23:40:45.867Z,101655.62
2018-09-10T23:43:14.159Z,101659.05
2018-09-10T23:45:42.559Z,101655.81
2018-09-10T23:48:10.823Z,101655.77
2018-09-10T23:50:39.093Z,101650.95
2018-09-10T23:53:07.347Z,101650.41
2018-09-10T23:55:35.695Z,101655.74
2018-09-10T23:58:03.888Z,101649.12
